createdAt,value
2019-04-23T00:02:23.274Z,1.40
2019-04-23T00:04:52.827Z,1.50
2019-04-23T00:07:39.734Z,1.57
2019-04-23T00:10:05.772Z,1.50
2019-04-23T00:12:38.931Z,1.60
2019-04-23T00:20:09.440Z,1.57
2019-04-23T00:22:59.866Z,1.47
2019-04-23T00:31:06.337Z,1.50
2019-04-23T00:33:30.213Z,1.60
2019-04-23T00:36:05.263Z,1.40
2019-04-23T00:38:39.947Z,1.70
2019-04-23T00:41:09.333Z,1.83
2019-04-23T00:43:50.961Z,1.60
2019-04-23T00:46:22.277Z,1.43
2019-04-23T00:51:13.838Z,1.40
2019-04-23T00:53:44.204Z,1.70
2019-04-23T00:56:32.647Z,1.40
2019-04-23T00:58:51.220Z,1.40
2019-04-23T01:01:18.301Z,1.40
2019-04-23T01:03:56.404Z,1.50
2019-04-23T01:06:24.199Z,1.50
2019-04-23T01:09:00.069Z,1.77
2019-04-23T01:11:27.675Z,1.50
2019-04-23T01:13:53.048Z,1.30
2019-04-23T01:16:28.265Z,1.33
2019-04-23T01:19:17.718Z,1.60
2019-04-23T01:21:30.524Z,2.37
2019-04-23T01:24:23.211Z,1.50
2019-04-23T01:30:10.120Z,1.70
2019-04-23T01:32:44.044Z,1.70
2019-04-23T01:35:16.025Z,1.37
2019-04-23T01:37:41.121Z,1.60
2019-04-23T01:40:19.126Z,1.47
2019-04-23T01:43:00.007Z,1.33
2019-04-23T01:45:26.964Z,1.37
2019-04-23T01:47:50.037Z,1.53
2019-04-23T01:58:07.883Z,1.63
2019-04-23T02:03:06.012Z,1.80
2019-04-23T02:05:36.301Z,2.00
2019-04-23T02:08:07.824Z,1.90
2019-04-23T02:10:47.335Z,1.40
2019-04-23T02:13:16.534Z,2.00
2019-04-23T02:15:43.885Z,2.13
2019-04-23T02:18:17.870Z,1.50
2019-04-23T02:20:56.604Z,1.63
2019-04-23T02:26:26.153Z,1.60
2019-04-23T02:28:53.148Z,1.63
2019-04-23T02:36:32.493Z,1.60
2019-04-23T02:38:58.355Z,1.63
2019-04-23T02:44:16.736Z,1.77
2019-04-23T02:46:40.959Z,2.17
2019-04-23T02:49:17.583Z,2.13
2019-04-23T02:51:54.621Z,1.83
2019-04-23T02:54:37.512Z,1.90
2019-04-23T02:56:51.209Z,1.63
2019-04-23T02:59:42.723Z,1.80
2019-04-23T03:02:14.408Z,1.90
2019-04-23T03:04:35.083Z,1.80
2019-04-23T03:07:16.162Z,1.70
2019-04-23T03:12:19.516Z,1.60
2019-04-23T03:14:41.725Z,2.23
2019-04-23T03:17:11.175Z,2.27
2019-04-23T03:20:06.022Z,1.70
2019-04-23T03:22:35.451Z,1.93
2019-04-23T03:25:31.927Z,2.00
2019-04-23T03:27:50.840Z,1.90
2019-04-23T03:30:43.081Z,1.70
2019-04-23T03:38:13.959Z,1.67
2019-04-23T03:40:34.842Z,1.97
2019-04-23T03:43:19.927Z,1.93
2019-04-23T03:45:46.689Z,2.10
2019-04-23T03:48:17.911Z,1.77
2019-04-23T03:50:38.850Z,1.70
2019-04-23T03:53:25.557Z,1.63
2019-04-23T03:55:55.664Z,1.77
2019-04-23T03:58:28.308Z,2.23
2019-04-23T04:01:01.426Z,1.60
2019-04-23T04:03:50.638Z,1.80
2019-04-23T04:08:29.214Z,1.90
2019-04-23T04:16:10.696Z,1.90
2019-04-23T04:21:18.487Z,2.10
2019-04-23T04:24:01.324Z,2.40
2019-04-23T04:26:16.193Z,1.80
2019-04-23T04:28:48.831Z,1.57
2019-04-23T04:31:18.766Z,1.90
2019-04-23T04:34:00.722Z,1.80
2019-04-23T04:39:03.316Z,1.70
2019-04-23T04:41:36.300Z,2.30
2019-04-23T04:44:27.275Z,2.07
2019-04-23T04:46:39.653Z,2.10
2019-04-23T04:49:05.549Z,2.27
2019-04-23T04:51:39.590Z,2.20
2019-04-23T04:54:09.268Z,1.70
2019-04-23T04:56:34.249Z,1.70
2019-04-23T05:01:39.618Z,2.07
2019-04-23T05:06:56.901Z,2.40
2019-04-23T05:09:25.040Z,2.53
2019-04-23T05:12:01.150Z,2.40
2019-04-23T05:14:51.136Z,1.87
2019-04-23T05:19:45.699Z,2.20
2019-04-23T05:24:36.666Z,2.00
2019-04-23T05:29:33.823Z,2.50
2019-04-23T05:31:58.180Z,2.50
2019-04-23T05:34:38.623Z,2.80
2019-04-23T05:37:06.415Z,2.33
2019-04-23T05:42:10.657Z,2.60
2019-04-23T05:44:43.246Z,1.93
2019-04-23T05:47:17.028Z,2.50
2019-04-23T05:49:47.548Z,2.53
2019-04-23T05:52:19.080Z,2.50
2019-04-23T05:54:49.883Z,2.40
2019-04-23T05:57:13.733Z,2.77
2019-04-23T05:59:46.854Z,2.40
2019-04-23T06:02:17.058Z,2.27
2019-04-23T06:04:53.201Z,2.43
2019-04-23T06:12:25.187Z,2.63
2019-04-23T06:15:00.232Z,2.50
2019-04-23T06:17:25.440Z,2.70
2019-04-23T06:20:02.855Z,2.40
2019-04-23T06:22:36.708Z,2.70
2019-04-23T06:25:35.926Z,2.70
2019-04-23T06:27:35.562Z,2.57
2019-04-23T06:30:01.095Z,2.50
2019-04-23T06:32:56.491Z,2.47
2019-04-23T06:35:08.765Z,2.93
2019-04-23T06:40:12.143Z,2.70
2019-04-23T06:43:12.752Z,2.93
2019-04-23T06:45:37.795Z,2.43
2019-04-23T06:48:15.442Z,3.13
2019-04-23T06:50:54.568Z,2.80
2019-04-23T06:53:16.260Z,2.97
2019-04-23T06:55:49.237Z,3.03
2019-04-23T06:58:25.368Z,2.83
2019-04-23T07:00:58.729Z,3.03
2019-04-23T07:03:36.095Z,3.03
2019-04-23T07:11:22.875Z,2.90
2019-04-23T07:13:54.561Z,3.00
2019-04-23T07:16:18.721Z,3.30
2019-04-23T07:18:46.887Z,2.93
2019-04-23T07:21:22.098Z,3.40
2019-04-23T07:24:00.234Z,3.17
2019-04-23T07:26:36.051Z,3.40
2019-04-23T07:34:01.051Z,2.90
2019-04-23T07:36:34.215Z,3.73
2019-04-23T07:39:35.619Z,3.50
2019-04-23T07:45:01.868Z,3.73
2019-04-23T07:47:54.415Z,3.40
2019-04-23T07:50:33.106Z,3.30
2019-04-23T07:53:00.226Z,3.57
2019-04-23T07:57:59.772Z,3.63
2019-04-23T08:00:35.239Z,3.30
2019-04-23T08:03:17.731Z,3.23
2019-04-23T08:05:39.028Z,3.50
2019-04-23T08:08:15.040Z,3.67
2019-04-23T08:11:17.962Z,3.93
2019-04-23T08:13:33.692Z,4.00
2019-04-23T08:15:53.913Z,4.10
2019-04-23T08:18:40.008Z,3.60
2019-04-23T08:21:05.547Z,3.83
2019-04-23T08:23:56.961Z,3.73
2019-04-23T08:27:04.626Z,3.70
2019-04-23T08:29:30.971Z,4.03
2019-04-23T08:34:48.395Z,4.00
2019-04-23T08:37:15.036Z,4.30
2019-04-23T08:42:33.474Z,4.20
2019-04-23T08:48:01.301Z,4.20
2019-04-23T08:50:27.425Z,4.10
2019-04-23T08:53:03.733Z,4.10
2019-04-23T08:55:38.859Z,4.73
2019-04-23T08:58:07.901Z,4.40
2019-04-23T09:00:49.795Z,4.40
2019-04-23T09:03:18.818Z,3.90
2019-04-23T09:10:55.957Z,4.90
2019-04-23T09:20:55.260Z,3.77
2019-04-23T09:25:57.586Z,5.30
2019-04-23T09:31:17.316Z,4.77
2019-04-23T09:39:43.032Z,4.73
2019-04-23T09:42:38.537Z,5.10
2019-04-23T09:45:13.009Z,5.47
2019-04-23T09:48:01.694Z,5.30
2019-04-23T09:50:29.248Z,4.87
2019-04-23T09:53:09.778Z,5.20
2019-04-23T09:55:33.391Z,5.73
2019-04-23T09:58:08.286Z,5.70
2019-04-23T10:00:45.513Z,5.70
2019-04-23T10:03:01.623Z,5.63
2019-04-23T10:05:28.809Z,5.77
2019-04-23T10:07:54.448Z,5.60
2019-04-23T10:10:18.565Z,5.43
2019-04-23T10:12:50.194Z,5.90
2019-04-23T10:15:25.090Z,5.67
2019-04-23T10:17:52.122Z,6.37
2019-04-23T10:20:22.566Z,5.43
2019-04-23T10:22:52.584Z,5.33
2019-04-23T10:25:22.834Z,5.70
2019-04-23T10:27:58.640Z,6.27
2019-04-23T10:30:24.205Z,5.90
2019-04-23T10:33:13.823Z,5.67
2019-04-23T10:35:53.128Z,6.17
2019-04-23T10:38:20.380Z,5.77
2019-04-23T10:40:50.736Z,5.47
2019-04-23T10:43:22.666Z,6.13
2019-04-23T10:46:27.839Z,6.20
2019-04-23T10:49:52.188Z,6.07
2019-04-23T10:51:59.952Z,6.87
2019-04-23T10:57:17.307Z,6.83
2019-04-23T11:07:28.494Z,5.90
2019-04-23T11:09:57.081Z,5.50
2019-04-23T11:15:26.688Z,6.40
2019-04-23T11:25:31.533Z,6.90
2019-04-23T11:33:22.138Z,6.20
2019-04-23T11:35:39.441Z,6.53
2019-04-23T11:40:34.287Z,6.67
2019-04-23T11:48:33.271Z,7.17
2019-04-23T11:51:23.023Z,7.13
2019-04-23T11:53:19.523Z,6.67
2019-04-23T11:58:20.362Z,6.77
2019-04-23T12:01:38.686Z,7.07
2019-04-23T12:04:14.879Z,6.23
2019-04-23T12:07:00.331Z,6.40
2019-04-23T12:09:43.012Z,7.10
2019-04-23T12:12:23.760Z,7.33
2019-04-23T12:14:47.285Z,6.43
2019-04-23T12:17:26.418Z,6.67
2019-04-23T12:22:31.592Z,7.47
2019-04-23T12:29:54.546Z,6.80
2019-04-23T12:37:44.940Z,6.73
2019-04-23T12:45:27.123Z,6.97
2019-04-23T12:55:36.295Z,6.83
2019-04-23T12:58:01.880Z,6.83
2019-04-23T13:00:33.942Z,6.80
2019-04-23T13:03:02.764Z,6.60
2019-04-23T13:05:32.772Z,6.90
2019-04-23T13:08:07.980Z,6.80
2019-04-23T13:13:16.718Z,7.10
2019-04-23T13:15:39.952Z,6.37
2019-04-23T13:18:19.294Z,6.53
2019-04-23T13:20:42.556Z,7.13
2019-04-23T13:23:34.804Z,7.73
2019-04-23T13:26:18.341Z,6.60
2019-04-23T13:28:48.468Z,7.10
2019-04-23T13:31:16.299Z,7.17
2019-04-23T13:34:04.320Z,7.70
2019-04-23T13:36:32.285Z,8.03
2019-04-23T13:38:56.686Z,6.73
2019-04-23T13:44:08.865Z,7.83
2019-04-23T13:46:19.758Z,7.47
2019-04-23T13:48:56.211Z,6.90
2019-04-23T13:54:07.524Z,7.20
2019-04-23T13:56:56.236Z,7.77
2019-04-23T14:01:41.175Z,6.90
2019-04-23T14:04:22.088Z,7.97
2019-04-23T14:11:46.615Z,7.23
2019-04-23T14:14:39.120Z,7.40
2019-04-23T14:17:03.838Z,7.40
2019-04-23T14:19:22.640Z,7.77
2019-04-23T14:22:18.436Z,7.30
2019-04-23T14:24:38.491Z,8.00
2019-04-23T14:27:09.381Z,7.63
2019-04-23T14:29:39.045Z,7.43
2019-04-23T14:32:08.754Z,7.30
2019-04-23T14:34:40.853Z,7.80
2019-04-23T14:37:04.145Z,7.43
2019-04-23T14:39:41.073Z,7.60
2019-04-23T14:44:52.468Z,6.37
2019-04-23T14:47:24.357Z,6.87
2019-04-23T14:50:29.418Z,7.10
2019-04-23T14:52:50.627Z,6.43
2019-04-23T14:57:45.552Z,6.37
2019-04-23T15:00:09.358Z,6.70
2019-04-23T15:05:15.492Z,6.77
2019-04-23T15:07:34.708Z,7.20
2019-04-23T15:10:18.625Z,7.23
2019-04-23T15:12:39.997Z,6.40
2019-04-23T15:17:47.131Z,6.63
2019-04-23T15:20:21.080Z,6.63
2019-04-23T15:23:10.161Z,6.90
2019-04-23T15:30:17.421Z,6.80
2019-04-23T15:33:03.914Z,6.43
2019-04-23T15:35:29.535Z,6.33
2019-04-23T15:38:18.569Z,6.70
2019-04-23T15:40:23.294Z,5.83
2019-04-23T15:43:05.915Z,6.67
2019-04-23T15:45:24.366Z,6.60
2019-04-23T15:48:03.343Z,6.23
2019-04-23T15:50:43.227Z,5.47
2019-04-23T15:53:01.364Z,6.13
2019-04-23T15:55:27.557Z,5.73
2019-04-23T16:00:31.359Z,6.20
2019-04-23T16:02:37.234Z,5.90
2019-04-23T16:05:08.759Z,6.00
2019-04-23T16:07:54.908Z,5.50
2019-04-23T16:10:37.735Z,6.10
2019-04-23T16:13:13.310Z,5.93
2019-04-23T16:15:45.486Z,5.50
2019-04-23T16:18:35.486Z,5.53
2019-04-23T16:21:03.757Z,5.27
2019-04-23T16:23:33.798Z,6.20
2019-04-23T16:25:58.431Z,6.40
2019-04-23T16:28:52.045Z,6.00
2019-04-23T16:31:03.290Z,6.07
2019-04-23T16:33:44.036Z,5.60
2019-04-23T16:38:45.129Z,5.77
2019-04-23T16:41:20.023Z,5.47
2019-04-23T16:43:59.875Z,4.80
2019-04-23T16:46:19.565Z,6.13
2019-04-23T16:49:02.863Z,5.30
2019-04-23T16:51:24.578Z,5.37
2019-04-23T16:53:52.742Z,5.70
2019-04-23T16:56:42.016Z,5.83
2019-04-23T17:01:21.284Z,5.43
2019-04-23T17:04:03.828Z,5.73
2019-04-23T17:06:29.334Z,5.50
2019-04-23T17:09:01.788Z,6.07
2019-04-23T17:11:34.271Z,5.60
2019-04-23T17:14:10.218Z,5.83
2019-04-23T17:21:44.068Z,5.83
2019-04-23T17:24:21.146Z,5.53
2019-04-23T17:26:52.161Z,6.20
2019-04-23T17:31:44.836Z,5.50
2019-04-23T17:34:32.236Z,6.77
2019-04-23T17:37:13.963Z,6.20
2019-04-23T17:40:17.520Z,6.07
2019-04-23T17:43:01.614Z,6.20
2019-04-23T17:48:30.280Z,6.00
2019-04-23T17:51:09.556Z,6.70
2019-04-23T17:56:16.659Z,6.87
2019-04-23T18:01:20.321Z,6.27
2019-04-23T18:04:03.811Z,6.53
2019-04-23T18:08:49.376Z,6.57
2019-04-23T18:11:23.298Z,6.07
2019-04-23T18:14:00.072Z,6.77
2019-04-23T18:19:05.807Z,6.60
2019-04-23T18:21:50.689Z,7.53
2019-04-23T18:24:16.805Z,6.40
2019-04-23T18:27:08.313Z,6.43
2019-04-23T18:32:32.715Z,6.50
2019-04-23T18:35:15.351Z,6.33
2019-04-23T18:40:00.241Z,6.77
2019-04-23T18:42:40.799Z,6.67
2019-04-23T18:45:20.423Z,6.37
2019-04-23T18:47:47.414Z,7.77
2019-04-23T18:50:10.272Z,6.77
2019-04-23T18:53:02.315Z,6.30
2019-04-23T18:55:39.268Z,6.80
2019-04-23T18:58:03.746Z,6.60
2019-04-23T19:00:36.984Z,7.23
2019-04-23T19:03:21.044Z,6.90
2019-04-23T19:06:13.343Z,7.17
2019-04-23T19:08:58.286Z,6.63
2019-04-23T19:11:43.903Z,6.03
2019-04-23T19:14:14.675Z,6.80
2019-04-23T19:16:54.985Z,6.67
2019-04-23T19:19:12.765Z,6.60
2019-04-23T19:22:07.025Z,7.20
2019-04-23T19:24:15.819Z,6.77
2019-04-23T19:29:21.636Z,6.57
2019-04-23T19:32:14.205Z,6.73
2019-04-23T19:37:34.422Z,6.83
2019-04-23T19:39:45.402Z,6.63
2019-04-23T19:44:51.583Z,6.60
2019-04-23T19:49:48.454Z,7.07
2019-04-23T19:52:48.232Z,6.40
2019-04-23T19:57:35.353Z,6.60
2019-04-23T20:00:06.021Z,7.17
2019-04-23T20:02:55.366Z,6.67
2019-04-23T20:05:07.267Z,7.37
2019-04-23T20:09:55.160Z,6.90
2019-04-23T20:12:44.804Z,6.33
2019-04-23T20:15:00.223Z,7.50
2019-04-23T20:20:09.795Z,6.90
2019-04-23T20:22:48.588Z,7.30
2019-04-23T20:25:39.324Z,6.87
2019-04-23T20:27:52.485Z,7.30
2019-04-23T20:35:46.939Z,8.57
2019-04-23T20:43:22.616Z,7.70
2019-04-23T20:46:11.328Z,7.30
2019-04-23T20:48:32.532Z,7.73
2019-04-23T20:50:56.414Z,7.30
2019-04-23T20:53:36.126Z,7.43
2019-04-23T20:58:54.916Z,7.80
2019-04-23T21:04:17.786Z,7.67
2019-04-23T21:06:39.729Z,7.23
2019-04-23T21:11:47.912Z,7.10
2019-04-23T21:14:31.818Z,7.80
2019-04-23T21:16:40.883Z,7.40
2019-04-23T21:19:36.313Z,7.93
2019-04-23T21:22:09.320Z,7.83
2019-04-23T21:24:36.524Z,8.27
2019-04-23T21:27:29.226Z,8.10
2019-04-23T21:32:33.211Z,7.97
2019-04-23T21:35:04.486Z,8.13
2019-04-23T21:37:43.366Z,8.13
2019-04-23T21:40:56.311Z,7.90
2019-04-23T21:46:07.306Z,8.13
2019-04-23T21:48:33.912Z,8.70
2019-04-23T21:50:49.070Z,8.10
2019-04-23T21:53:15.228Z,9.20
2019-04-23T21:55:54.259Z,8.07
2019-04-23T21:58:29.698Z,9.03
2019-04-23T22:03:49.655Z,8.70
2019-04-23T22:06:04.468Z,7.80
2019-04-23T22:08:37.868Z,9.27
2019-04-23T22:11:24.983Z,8.90
2019-04-23T22:13:53.841Z,9.10
2019-04-23T22:16:16.276Z,8.90
2019-04-23T22:18:51.562Z,9.27
2019-04-23T22:21:14.298Z,8.90
2019-04-23T22:23:50.630Z,9.73
2019-04-23T22:26:14.628Z,9.40
2019-04-23T22:28:58.066Z,9.83
2019-04-23T22:33:56.146Z,9.67
2019-04-23T22:36:15.166Z,10.00
2019-04-23T22:41:30.357Z,9.63
2019-04-23T22:46:43.405Z,9.27
2019-04-23T22:49:17.987Z,9.77
2019-04-23T22:51:56.884Z,9.83
2019-04-23T22:56:44.352Z,9.80
2019-04-23T22:59:18.590Z,9.00
2019-04-23T23:01:56.945Z,9.63
2019-04-23T23:06:57.298Z,10.17
2019-04-23T23:12:00.204Z,10.27
2019-04-23T23:14:24.143Z,9.83
2019-04-23T23:19:31.667Z,9.73
2019-04-23T23:22:03.381Z,9.63
2019-04-23T23:24:32.092Z,10.40
2019-04-23T23:27:02.346Z,9.83
2019-04-23T23:29:28.269Z,8.90
2019-04-23T23:34:41.980Z,10.13
2019-04-23T23:37:07.185Z,10.07
2019-04-23T23:39:54.989Z,9.90
2019-04-23T23:42:09.813Z,9.90
2019-04-23T23:49:56.903Z,10.37
2019-04-23T23:52:12.633Z,9.97
2019-04-23T23:54:52.648Z,10.30
2019-04-23T23:57:32.266Z,10.30
